sensor_id;sensor_type;location;lat;lon;timestamp;P1;durP1;ratioP1;P2;durP2;ratioP2
13603;SDS011;24578;48.264;11.436;2023-09-18T00:04:42;11.25;;;5.88;;
13603;SDS011;24578;48.264;11.436;2023-09-18T00:11:03;12.88;;;7.18;;
13603;SDS011;24578;48.264;11.436;2023-09-18T00:23:45;13.10;;;7.68;;
13603;SDS011;24578;48.264;11.436;2023-09-18T00:30:07;13.02;;;7.15;;
13603;SDS011;24578;48.264;11.436;2023-09-18T00:36:28;10.80;;;6.28;;
13603;SDS011;24578;48.264;11.436;2023-09-18T00:49:10;12.70;;;6.28;;
13603;SDS011;24578;48.264;11.436;2023-09-18T00:55:33;12.88;;;7.88;;
13603;SDS011;24578;48.264;11.436;2023-09-18T01:01:54;14.02;;;7.03;;
13603;SDS011;24578;48.264;11.436;2023-09-18T01:14:38;9.88;;;5.70;;
13603;SDS011;24578;48.264;11.436;2023-09-18T01:21:04;10.55;;;6.13;;
13603;SDS011;24578;48.264;11.436;2023-09-18T01:33:46;10.38;;;6.22;;
13603;SDS011;24578;48.264;11.436;2023-09-18T01:40:08;11.65;;;6.35;;
13603;SDS011;24578;48.264;11.436;2023-09-18T01:52:53;10.82;;;6.18;;
13603;SDS011;24578;48.264;11.436;2023-09-18T01:59:14;12.68;;;6.75;;
13603;SDS011;24578;48.264;11.436;2023-09-18T02:05:35;11.50;;;6.35;;
13603;SDS011;24578;48.264;11.436;2023-09-18T02:11:57;10.45;;;5.90;;
13603;SDS011;24578;48.264;11.436;2023-09-18T02:18:18;11.63;;;6.53;;
13603;SDS011;24578;48.264;11.436;2023-09-18T02:31:00;11.02;;;6.15;;
13603;SDS011;24578;48.264;11.436;2023-09-18T02:43:43;11.50;;;6.32;;
13603;SDS011;24578;48.264;11.436;2023-09-18T02:56:26;12.32;;;6.53;;
13603;SDS011;24578;48.264;11.436;2023-09-18T03:09:08;10.50;;;6.28;;
13603;SDS011;24578;48.264;11.436;2023-09-18T03:15:29;11.88;;;6.15;;
13603;SDS011;24578;48.264;11.436;2023-09-18T03:21:51;12.50;;;6.82;;
13603;SDS011;24578;48.264;11.436;2023-09-18T03:28:12;13.25;;;7.72;;
13603;SDS011;24578;48.264;11.436;2023-09-18T03:40:54;13.27;;;7.43;;
13603;SDS011;24578;48.264;11.436;2023-09-18T03:47:16;13.25;;;7.10;;
13603;SDS011;24578;48.264;11.436;2023-09-18T03:53:37;15.25;;;8.23;;
13603;SDS011;24578;48.264;11.436;2023-09-18T03:59:58;13.77;;;8.07;;
13603;SDS011;24578;48.264;11.436;2023-09-18T04:06:21;14.00;;;8.02;;
13603;SDS011;24578;48.264;11.436;2023-09-18T04:12:45;12.45;;;7.15;;
13603;SDS011;24578;48.264;11.436;2023-09-18T04:19:07;13.68;;;7.28;;
13603;SDS011;24578;48.264;11.436;2023-09-18T04:25:29;11.70;;;6.90;;
13603;SDS011;24578;48.264;11.436;2023-09-18T04:31:52;14.10;;;7.22;;
13603;SDS011;24578;48.264;11.436;2023-09-18T04:38:14;15.63;;;7.70;;
13603;SDS011;24578;48.264;11.436;2023-09-18T04:50:57;13.25;;;7.82;;
13603;SDS011;24578;48.264;11.436;2023-09-18T04:57:19;15.82;;;8.80;;
13603;SDS011;24578;48.264;11.436;2023-09-18T05:03:40;13.68;;;7.03;;
13603;SDS011;24578;48.264;11.436;2023-09-18T05:10:01;14.63;;;7.82;;
13603;SDS011;24578;48.264;11.436;2023-09-18T05:16:22;14.93;;;7.85;;
13603;SDS011;24578;48.264;11.436;2023-09-18T05:29:05;12.40;;;7.45;;
13603;SDS011;24578;48.264;11.436;2023-09-18T05:35:26;11.52;;;6.32;;
13603;SDS011;24578;48.264;11.436;2023-09-18T05:41:48;12.35;;;6.78;;
13603;SDS011;24578;48.264;11.436;2023-09-18T05:48:09;12.80;;;6.18;;
13603;SDS011;24578;48.264;11.436;2023-09-18T05:54:30;9.85;;;5.20;;
13603;SDS011;24578;48.264;11.436;2023-09-18T06:00:52;9.98;;;5.00;;
13603;SDS011;24578;48.264;11.436;2023-09-18T06:07:13;7.97;;;4.50;;
13603;SDS011;24578;48.264;11.436;2023-09-18T06:13:34;8.80;;;4.82;;
13603;SDS011;24578;48.264;11.436;2023-09-18T06:19:55;7.88;;;4.50;;
13603;SDS011;24578;48.264;11.436;2023-09-18T06:26:18;10.43;;;4.85;;
13603;SDS011;24578;48.264;11.436;2023-09-18T06:32:39;10.68;;;4.70;;
13603;SDS011;24578;48.264;11.436;2023-09-18T06:39:00;8.32;;;4.53;;
13603;SDS011;24578;48.264;11.436;2023-09-18T06:45:22;8.55;;;4.53;;
13603;SDS011;24578;48.264;11.436;2023-09-18T06:51:43;7.95;;;4.53;;
13603;SDS011;24578;48.264;11.436;2023-09-18T06:58:04;8.10;;;4.05;;
13603;SDS011;24578;48.264;11.436;2023-09-18T07:04:25;9.02;;;4.80;;
13603;SDS011;24578;48.264;11.436;2023-09-18T07:10:48;7.35;;;4.35;;
13603;SDS011;24578;48.264;11.436;2023-09-18T07:17:11;7.85;;;3.95;;
13603;SDS011;24578;48.264;11.436;2023-09-18T07:23:32;7.28;;;4.20;;
13603;SDS011;24578;48.264;11.436;2023-09-18T07:29:56;7.57;;;4.20;;
13603;SDS011;24578;48.264;11.436;2023-09-18T07:36:18;7.93;;;4.20;;
13603;SDS011;24578;48.264;11.436;2023-09-18T07:42:39;9.15;;;4.28;;
13603;SDS011;24578;48.264;11.436;2023-09-18T07:49:00;10.55;;;4.88;;
13603;SDS011;24578;48.264;11.436;2023-09-18T07:55:21;8.80;;;4.30;;
13603;SDS011;24578;48.264;11.436;2023-09-18T08:01:43;8.77;;;4.00;;
13603;SDS011;24578;48.264;11.436;2023-09-18T08:08:04;7.25;;;3.92;;
13603;SDS011;24578;48.264;11.436;2023-09-18T08:14:26;7.70;;;4.05;;
13603;SDS011;24578;48.264;11.436;2023-09-18T08:20:48;7.43;;;3.90;;
13603;SDS011;24578;48.264;11.436;2023-09-18T08:27:09;7.93;;;4.00;;
13603;SDS011;24578;48.264;11.436;2023-09-18T08:33:32;7.70;;;4.10;;
13603;SDS011;24578;48.264;11.436;2023-09-18T08:39:53;8.85;;;4.57;;
13603;SDS011;24578;48.264;11.436;2023-09-18T08:46:15;8.45;;;4.45;;
13603;SDS011;24578;48.264;11.436;2023-09-18T08:52:36;8.30;;;4.38;;
13603;SDS011;24578;48.264;11.436;2023-09-18T08:58:58;7.90;;;4.55;;
13603;SDS011;24578;48.264;11.436;2023-09-18T09:05:21;8.27;;;4.65;;
13603;SDS011;24578;48.264;11.436;2023-09-18T09:11:49;9.35;;;4.40;;
13603;SDS011;24578;48.264;11.436;2023-09-18T09:18:11;9.27;;;5.13;;
13603;SDS011;24578;48.264;11.436;2023-09-18T09:24:41;9.57;;;4.18;;
13603;SDS011;24578;48.264;11.436;2023-09-18T09:31:04;7.82;;;4.53;;
13603;SDS011;24578;48.264;11.436;2023-09-18T09:37:29;11.23;;;4.38;;
13603;SDS011;24578;48.264;11.436;2023-09-18T09:43:52;9.25;;;4.50;;
13603;SDS011;24578;48.264;11.436;2023-09-18T09:50:15;10.38;;;4.60;;
13603;SDS011;24578;48.264;11.436;2023-09-18T09:56:49;11.65;;;4.50;;
13603;SDS011;24578;48.264;11.436;2023-09-18T10:03:13;10.02;;;3.90;;
13603;SDS011;24578;48.264;11.436;2023-09-18T10:09:36;10.18;;;3.78;;
13603;SDS011;24578;48.264;11.436;2023-09-18T10:16:04;8.43;;;3.33;;
13603;SDS011;24578;48.264;11.436;2023-09-18T10:28:47;8.75;;;3.30;;
13603;SDS011;24578;48.264;11.436;2023-09-18T10:35:09;8.15;;;2.97;;
13603;SDS011;24578;48.264;11.436;2023-09-18T10:41:32;9.25;;;2.90;;
13603;SDS011;24578;48.264;11.436;2023-09-18T10:47:54;9.45;;;2.50;;
13603;SDS011;24578;48.264;11.436;2023-09-18T10:54:20;8.55;;;2.15;;
13603;SDS011;24578;48.264;11.436;2023-09-18T11:00:42;11.40;;;2.83;;
13603;SDS011;24578;48.264;11.436;2023-09-18T11:07:03;12.05;;;2.47;;
13603;SDS011;24578;48.264;11.436;2023-09-18T11:13:29;10.32;;;2.60;;
13603;SDS011;24578;48.264;11.436;2023-09-18T11:26:16;9.05;;;2.75;;
13603;SDS011;24578;48.264;11.436;2023-09-18T11:32:37;11.32;;;2.70;;
13603;SDS011;24578;48.264;11.436;2023-09-18T11:39:00;7.85;;;2.33;;
13603;SDS011;24578;48.264;11.436;2023-09-18T11:45:24;10.75;;;2.33;;
13603;SDS011;24578;48.264;11.436;2023-09-18T11:51:47;12.15;;;3.17;;
13603;SDS011;24578;48.264;11.436;2023-09-18T11:58:08;7.32;;;2.15;;
13603;SDS011;24578;48.264;11.436;2023-09-18T12:04:30;5.00;;;1.55;;
13603;SDS011;24578;48.264;11.436;2023-09-18T12:10:52;6.20;;;1.83;;
13603;SDS011;24578;48.264;11.436;2023-09-18T12:17:16;8.52;;;2.17;;
13603;SDS011;24578;48.264;11.436;2023-09-18T12:23:38;7.80;;;1.40;;
13603;SDS011;24578;48.264;11.436;2023-09-18T12:29:59;5.53;;;1.38;;
13603;SDS011;24578;48.264;11.436;2023-09-18T12:36:21;4.30;;;1.30;;
13603;SDS011;24578;48.264;11.436;2023-09-18T12:42:42;5.68;;;1.40;;
13603;SDS011;24578;48.264;11.436;2023-09-18T12:49:17;4.50;;;1.25;;
13603;SDS011;24578;48.264;11.436;2023-09-18T12:55:39;5.28;;;1.15;;
13603;SDS011;24578;48.264;11.436;2023-09-18T13:02:05;5.70;;;1.23;;
13603;SDS011;24578;48.264;11.436;2023-09-18T13:08:26;6.22;;;1.45;;
13603;SDS011;24578;48.264;11.436;2023-09-18T13:15:00;7.07;;;1.30;;
13603;SDS011;24578;48.264;11.436;2023-09-18T13:21:25;5.78;;;1.52;;
13603;SDS011;24578;48.264;11.436;2023-09-18T13:27:46;6.22;;;1.70;;
13603;SDS011;24578;48.264;11.436;2023-09-18T13:34:08;6.07;;;1.48;;
13603;SDS011;24578;48.264;11.436;2023-09-18T13:40:29;5.80;;;1.70;;
13603;SDS011;24578;48.264;11.436;2023-09-18T13:46:50;11.82;;;1.73;;
13603;SDS011;24578;48.264;11.436;2023-09-18T13:53:12;6.78;;;1.80;;
13603;SDS011;24578;48.264;11.436;2023-09-18T13:59:34;5.63;;;1.58;;
13603;SDS011;24578;48.264;11.436;2023-09-18T14:05:55;5.70;;;1.30;;
13603;SDS011;24578;48.264;11.436;2023-09-18T14:12:17;5.38;;;1.60;;
13603;SDS011;24578;48.264;11.436;2023-09-18T14:18:38;5.07;;;1.50;;
13603;SDS011;24578;48.264;11.436;2023-09-18T14:24:59;4.78;;;1.67;;
13603;SDS011;24578;48.264;11.436;2023-09-18T14:31:21;5.47;;;1.42;;
13603;SDS011;24578;48.264;11.436;2023-09-18T14:37:42;4.50;;;1.23;;
13603;SDS011;24578;48.264;11.436;2023-09-18T14:44:03;4.53;;;1.10;;
13603;SDS011;24578;48.264;11.436;2023-09-18T14:50:25;5.30;;;1.42;;
13603;SDS011;24578;48.264;11.436;2023-09-18T14:56:47;4.80;;;1.20;;
13603;SDS011;24578;48.264;11.436;2023-09-18T15:03:08;4.00;;;0.98;;
13603;SDS011;24578;48.264;11.436;2023-09-18T15:09:29;5.45;;;1.45;;
13603;SDS011;24578;48.264;11.436;2023-09-18T15:15:50;41.28;;;22.98;;
13603;SDS011;24578;48.264;11.436;2023-09-18T15:22:12;6.05;;;1.60;;
13603;SDS011;24578;48.264;11.436;2023-09-18T15:28:33;4.63;;;1.25;;
13603;SDS011;24578;48.264;11.436;2023-09-18T15:34:56;6.47;;;1.33;;
13603;SDS011;24578;48.264;11.436;2023-09-18T15:41:17;5.18;;;1.23;;
13603;SDS011;24578;48.264;11.436;2023-09-18T15:47:38;9.02;;;1.40;;
13603;SDS011;24578;48.264;11.436;2023-09-18T15:54:00;5.00;;;1.23;;
13603;SDS011;24578;48.264;11.436;2023-09-18T16:00:22;5.35;;;1.15;;
13603;SDS011;24578;48.264;11.436;2023-09-18T16:06:43;4.45;;;1.30;;
13603;SDS011;24578;48.264;11.436;2023-09-18T16:13:05;5.22;;;1.23;;
13603;SDS011;24578;48.264;11.436;2023-09-18T16:19:26;4.45;;;1.20;;
13603;SDS011;24578;48.264;11.436;2023-09-18T16:25:48;3.85;;;1.10;;
13603;SDS011;24578;48.264;11.436;2023-09-18T16:32:09;3.58;;;1.05;;
13603;SDS011;24578;48.264;11.436;2023-09-18T16:38:31;4.25;;;1.00;;
13603;SDS011;24578;48.264;11.436;2023-09-18T16:44:52;5.20;;;1.10;;
13603;SDS011;24578;48.264;11.436;2023-09-18T16:51:14;3.15;;;1.00;;
13603;SDS011;24578;48.264;11.436;2023-09-18T16:57:35;5.07;;;1.15;;
13603;SDS011;24578;48.264;11.436;2023-09-18T17:03:56;4.32;;;1.17;;
13603;SDS011;24578;48.264;11.436;2023-09-18T17:10:18;4.55;;;1.20;;
13603;SDS011;24578;48.264;11.436;2023-09-18T17:16:39;4.00;;;1.10;;
13603;SDS011;24578;48.264;11.436;2023-09-18T17:23:00;3.95;;;1.15;;
13603;SDS011;24578;48.264;11.436;2023-09-18T17:29:22;4.15;;;1.13;;
13603;SDS011;24578;48.264;11.436;2023-09-18T17:35:43;4.07;;;1.10;;
13603;SDS011;24578;48.264;11.436;2023-09-18T17:42:24;5.15;;;1.08;;
13603;SDS011;24578;48.264;11.436;2023-09-18T17:48:46;5.63;;;1.30;;
13603;SDS011;24578;48.264;11.436;2023-09-18T17:55:08;5.38;;;1.30;;
13603;SDS011;24578;48.264;11.436;2023-09-18T18:01:34;4.70;;;1.23;;
13603;SDS011;24578;48.264;11.436;2023-09-18T18:07:56;5.40;;;1.30;;
13603;SDS011;24578;48.264;11.436;2023-09-18T18:14:18;4.55;;;1.15;;
13603;SDS011;24578;48.264;11.436;2023-09-18T18:20:42;4.65;;;1.17;;
13603;SDS011;24578;48.264;11.436;2023-09-18T18:27:05;5.35;;;1.73;;
13603;SDS011;24578;48.264;11.436;2023-09-18T18:33:28;4.60;;;1.50;;
13603;SDS011;24578;48.264;11.436;2023-09-18T18:39:49;4.05;;;1.10;;
13603;SDS011;24578;48.264;11.436;2023-09-18T18:46:11;4.70;;;1.33;;
13603;SDS011;24578;48.264;11.436;2023-09-18T18:52:32;5.38;;;1.20;;
13603;SDS011;24578;48.264;11.436;2023-09-18T18:58:53;4.97;;;1.38;;
13603;SDS011;24578;48.264;11.436;2023-09-18T19:05:15;4.65;;;1.45;;
13603;SDS011;24578;48.264;11.436;2023-09-18T19:11:36;5.60;;;1.73;;
13603;SDS011;24578;48.264;11.436;2023-09-18T19:17:57;4.38;;;1.50;;
13603;SDS011;24578;48.264;11.436;2023-09-18T19:24:18;4.75;;;1.27;;
13603;SDS011;24578;48.264;11.436;2023-09-18T19:30:40;6.03;;;1.63;;
13603;SDS011;24578;48.264;11.436;2023-09-18T19:37:06;4.50;;;1.40;;
13603;SDS011;24578;48.264;11.436;2023-09-18T19:43:27;4.90;;;1.30;;
13603;SDS011;24578;48.264;11.436;2023-09-18T19:49:49;3.28;;;0.88;;
13603;SDS011;24578;48.264;11.436;2023-09-18T19:56:10;3.28;;;1.00;;
13603;SDS011;24578;48.264;11.436;2023-09-18T20:02:31;3.60;;;1.10;;
13603;SDS011;24578;48.264;11.436;2023-09-18T20:08:53;4.38;;;1.30;;
13603;SDS011;24578;48.264;11.436;2023-09-18T20:15:15;4.97;;;1.25;;
13603;SDS011;24578;48.264;11.436;2023-09-18T20:21:37;4.25;;;1.10;;
13603;SDS011;24578;48.264;11.436;2023-09-18T20:27:58;5.55;;;1.25;;
13603;SDS011;24578;48.264;11.436;2023-09-18T20:34:19;4.13;;;1.10;;
13603;SDS011;24578;48.264;11.436;2023-09-18T20:40:42;4.10;;;1.13;;
13603;SDS011;24578;48.264;11.436;2023-09-18T20:47:04;4.78;;;1.27;;
13603;SDS011;24578;48.264;11.436;2023-09-18T20:53:25;4.45;;;1.10;;
13603;SDS011;24578;48.264;11.436;2023-09-18T20:59:47;3.78;;;1.17;;
13603;SDS011;24578;48.264;11.436;2023-09-18T21:06:11;5.20;;;1.33;;
13603;SDS011;24578;48.264;11.436;2023-09-18T21:12:32;5.45;;;1.13;;
13603;SDS011;24578;48.264;11.436;2023-09-18T21:18:54;4.70;;;1.30;;
13603;SDS011;24578;48.264;11.436;2023-09-18T21:25:15;4.82;;;1.30;;
13603;SDS011;24578;48.264;11.436;2023-09-18T21:31:37;5.28;;;1.13;;
13603;SDS011;24578;48.264;11.436;2023-09-18T21:37:59;4.93;;;1.35;;
13603;SDS011;24578;48.264;11.436;2023-09-18T21:44:21;4.80;;;1.20;;
13603;SDS011;24578;48.264;11.436;2023-09-18T21:50:43;4.15;;;1.10;;
13603;SDS011;24578;48.264;11.436;2023-09-18T21:57:04;3.83;;;1.10;;
13603;SDS011;24578;48.264;11.436;2023-09-18T22:03:26;5.10;;;1.40;;
13603;SDS011;24578;48.264;11.436;2023-09-18T22:09:47;6.28;;;1.35;;
13603;SDS011;24578;48.264;11.436;2023-09-18T22:16:12;5.30;;;1.23;;
13603;SDS011;24578;48.264;11.436;2023-09-18T22:22:34;5.53;;;1.17;;
13603;SDS011;24578;48.264;11.436;2023-09-18T22:28:55;4.60;;;1.30;;
13603;SDS011;24578;48.264;11.436;2023-09-18T22:35:16;3.60;;;0.98;;
13603;SDS011;24578;48.264;11.436;2023-09-18T22:54:59;4.30;;;1.02;;
13603;SDS011;24578;48.264;11.436;2023-09-18T23:07:42;5.70;;;1.10;;
13603;SDS011;24578;48.264;11.436;2023-09-18T23:14:05;7.18;;;1.42;;
13603;SDS011;24578;48.264;11.436;2023-09-18T23:20:28;5.25;;;1.20;;
13603;SDS011;24578;48.264;11.436;2023-09-18T23:26:51;3.80;;;1.13;;
13603;SDS011;24578;48.264;11.436;2023-09-18T23:39:35;4.65;;;1.25;;
13603;SDS011;24578;48.264;11.436;2023-09-18T23:45:59;3.63;;;1.10;;
13603;SDS011;24578;48.264;11.436;2023-09-18T23:52:21;4.00;;;1.20;;
13603;SDS011;24578;48.264;11.436;2023-09-18T23:58:45;4.07;;;1.25;;
